Time;durP1;ratioP1;P1;durP2;ratioP2;P2;SDS_P1;SDS_P2;PMS_P1;PMS_P2;Temp;Humidity;BMP_temperature;BMP_pressure;BME280_temperature;BME280_humidity;BME280_pressure;Samples;Min_cycle;Max_cycle;Signal;HPM_P1;HPM_P2
2022/01/24 00:00:30;;;;;;;48.40;36.37;;;;;;;4.36;92.16;103323.91;6403070;23;20512;-73
2022/01/24 00:03:02;;;;;;;49.93;35.20;;;;;;;4.34;92.03;103322.94;6402597;23;20009;-71
2022/01/24 00:05:33;;;;;;;52.40;37.37;;;;;;;4.36;91.56;103331.66;6403120;23;20050;-74
2022/01/24 00:08:05;;;;;;;41.20;30.60;;;;;;;4.32;87.76;103322.88;6402934;23;20009;-74
2022/01/24 00:10:39;;;;;;;40.73;32.23;;;;;;;4.35;87.68;103319.56;6402849;23;20027;-75
2022/01/24 00:13:49;;;;;;;45.30;32.13;;;;;;;4.34;87.08;103321.25;6401233;23;20002;-71
2022/01/24 00:16:22;;;;;;;46.33;32.58;;;;;;;4.36;87.08;103322.22;6402430;23;20017;-73
2022/01/24 00:27:06;;;;;;;44.40;32.40;;;;;;;4.35;87.51;103325.63;6402571;23;20100;-74
2022/01/24 00:29:37;;;;;;;46.60;33.70;;;;;;;4.31;88.08;103325.38;6404828;23;20021;-71
2022/01/24 00:32:09;;;;;;;42.13;33.53;;;;;;;4.35;89.52;103315.28;6402752;23;20017;-73
2022/01/24 00:34:40;;;;;;;44.00;34.67;;;;;;;4.33;89.62;103322.06;6376263;23;20104;-70
2022/01/24 00:37:11;;;;;;;39.67;29.97;;;;;;;4.28;87.11;103310.59;6402679;23;20005;-73
2022/01/24 00:39:43;;;;;;;38.37;29.17;;;;;;;4.29;85.23;103312.38;6432260;23;20457;-73
2022/01/24 00:42:27;;;;;;;37.83;27.03;;;;;;;4.30;84.83;103306.41;6433273;23;20013;-73
2022/01/24 00:56:29;;;;;;;33.28;23.55;;;;;;;4.23;82.36;103309.44;6337288;23;20045;-74
2022/01/24 00:59:01;;;;;;;29.57;23.07;;;;;;;4.26;83.23;103312.19;6338152;23;20077;-74
2022/01/24 01:01:32;;;;;;;33.33;24.87;;;;;;;4.23;82.88;103318.91;6338279;23;20002;-72
2022/01/24 01:04:03;;;;;;;32.07;25.90;;;;;;;4.27;83.08;103313.97;6338333;23;20037;-71
2022/01/24 01:06:38;;;;;;;35.03;26.47;;;;;;;4.23;83.75;103313.72;6338160;23;20006;-71
2022/01/24 01:20:40;;;;;;;32.83;25.48;;;;;;;4.18;83.06;103306.63;6337600;23;20854;-73
2022/01/24 01:23:11;;;;;;;31.73;25.60;;;;;;;4.18;84.77;103306.63;6337996;23;20358;-72
2022/01/24 01:25:44;;;;;;;36.63;26.50;;;;;;;4.19;84.22;103303.25;6337950;23;20102;-71
2022/01/24 01:28:17;;;;;;;35.40;26.52;;;;;;;4.21;83.50;103303.31;6337882;23;20041;-72
2022/01/24 01:30:51;;;;;;;36.35;26.60;;;;;;;4.21;83.53;103300.75;6337816;23;20011;-72
2022/01/24 01:33:35;;;;;;;33.17;26.15;;;;;;;4.22;82.84;103297.38;6431673;23;20005;-72
2022/01/24 01:36:23;;;;;;;33.53;25.35;;;;;;;4.20;82.33;103298.94;6433044;23;20023;-71
2022/01/24 01:53:29;;;;;;;31.95;25.38;;;;;;;4.17;83.13;103306.53;6433167;23;20009;-72
2022/01/24 01:55:58;;;;;;;30.92;24.25;;;;;;;4.20;82.99;103299.88;6432558;23;20044;-72
2022/01/24 01:58:29;;;;;;;34.43;25.50;;;;;;;4.14;83.28;103301.22;6432772;23;20117;-71
2022/01/24 02:01:03;;;;;;;31.97;24.87;;;;;;;4.18;83.39;103304.03;6433290;23;20379;-71
2022/01/24 02:03:34;;;;;;;32.17;25.20;;;;;;;4.17;82.44;103298.78;6432932;23;20343;-70
2022/01/24 02:06:05;;;;;;;31.20;22.83;;;;;;;4.18;80.94;103300.56;6432641;23;20001;-72
2022/01/24 02:08:38;;;;;;;30.33;22.77;;;;;;;4.20;81.84;103297.28;6432657;23;20005;-72
2022/01/24 02:11:15;;;;;;;30.80;25.17;;;;;;;4.18;83.10;103298.00;6432886;23;20412;-72
2022/01/24 02:13:47;;;;;;;33.58;25.40;;;;;;;4.15;83.39;103297.81;6432677;23;20031;-71
2022/01/24 02:16:36;;;;;;;32.22;24.63;;;;;;;4.10;83.66;103294.09;6432906;23;20393;-72
2022/01/24 02:19:21;;;;;;;34.08;25.98;;;;;;;4.12;83.53;103289.91;6410571;23;20431;-73
2022/01/24 02:24:41;;;;;;;32.40;24.58;;;;;;;4.07;82.51;103284.50;6432767;23;20728;-72
2022/01/24 02:27:15;;;;;;;31.00;23.90;;;;;;;4.12;82.73;103282.16;6433462;23;20418;-71
2022/01/24 02:29:54;;;;;;;31.85;24.33;;;;;;;4.05;82.87;103280.94;6432634;23;20489;-72
2022/01/24 02:32:25;;;;;;;28.58;21.60;;;;;;;4.11;81.31;103283.00;6432755;23;20127;-71
2022/01/24 02:34:56;;;;;;;28.93;22.80;;;;;;;4.10;80.28;103284.66;6433415;23;20034;-70
2022/01/24 02:37:28;;;;;;;26.80;21.43;;;;;;;4.11;78.60;103283.88;6434319;23;20012;-71
2022/01/24 02:40:10;;;;;;;26.63;20.77;;;;;;;4.14;78.64;103285.75;6434292;23;20013;-73
2022/01/24 02:48:29;;;;;;;28.88;22.40;;;;;;;4.12;78.96;103275.34;6434426;23;20017;-70
2022/01/24 02:53:45;;;;;;;31.67;22.63;;;;;;;4.11;79.78;103273.53;6434699;23;20334;-71
2022/01/24 02:56:17;;;;;;;31.20;23.17;;;;;;;4.09;80.42;103269.09;6434669;23;20001;-71
2022/01/24 02:58:48;;;;;;;27.93;22.00;;;;;;;4.09;80.56;103274.25;6434389;23;20009;-71
2022/01/24 03:01:20;;;;;;;32.70;23.77;;;;;;;4.05;80.51;103275.78;6434252;23;20005;-71
2022/01/24 03:03:51;;;;;;;32.57;23.57;;;;;;;4.08;80.47;103275.09;6434155;23;20012;-71
2022/01/24 03:06:22;;;;;;;30.50;23.33;;;;;;;4.11;80.44;103267.50;6434665;23;20005;-72
2022/01/24 03:08:54;;;;;;;32.00;24.53;;;;;;;4.09;81.17;103269.09;6434569;23;20083;-72
2022/01/24 03:11:27;;;;;;;31.63;23.67;;;;;;;4.10;81.01;103255.38;6434472;23;20008;-71
2022/01/24 03:13:59;;;;;;;28.55;22.42;;;;;;;4.10;80.26;103263.13;6434539;23;20036;-70
2022/01/24 03:16:30;;;;;;;28.80;22.47;;;;;;;4.13;81.19;103261.59;6433721;23;20017;-73
2022/01/24 03:19:01;;;;;;;31.50;23.60;;;;;;;4.12;80.99;103266.69;6434436;23;20067;-73
2022/01/24 03:21:33;;;;;;;31.93;22.37;;;;;;;4.09;80.17;103257.09;6434172;23;20079;-73
2022/01/24 03:24:04;;;;;;;30.07;22.20;;;;;;;4.07;80.47;103260.38;6434184;23;20355;-72
2022/01/24 03:26:36;;;;;;;27.27;22.80;;;;;;;4.10;81.04;103256.25;6434121;23;20326;-72
2022/01/24 03:29:08;;;;;;;30.47;25.03;;;;;;;4.08;80.09;103254.44;6434190;23;20339;-72
2022/01/24 03:31:40;;;;;;;30.60;22.52;;;;;;;4.07;80.30;103250.06;6434062;23;20012;-71
2022/01/24 03:34:12;;;;;;;29.17;23.50;;;;;;;4.06;80.67;103251.75;6433820;23;20009;-71
2022/01/24 03:36:43;;;;;;;30.70;24.35;;;;;;;4.06;81.49;103253.44;6433791;23;20016;-71
2022/01/24 03:39:15;;;;;;;30.20;24.53;;;;;;;4.03;81.56;103248.13;6433892;23;20013;-72
2022/01/24 03:41:46;;;;;;;30.13;23.20;;;;;;;4.01;82.23;103245.47;6434223;23;20001;-71
2022/01/24 03:44:19;;;;;;;29.20;23.60;;;;;;;3.98;82.14;103250.47;6433830;23;20076;-72
2022/01/24 03:47:12;;;;;;;30.90;25.00;;;;;;;4.02;82.19;103252.38;6433369;23;20563;-71
2022/01/24 03:49:48;;;;;;;28.77;22.95;;;;;;;3.99;81.94;103254.81;6433509;23;20068;-71
2022/01/24 03:52:19;;;;;;;32.92;25.63;;;;;;;3.98;81.23;103258.22;6433498;23;20415;-71
2022/01/24 03:54:51;;;;;;;31.60;24.13;;;;;;;3.95;80.10;103256.34;6434240;23;20092;-72
2022/01/24 03:57:22;;;;;;;30.77;24.80;;;;;;;3.95;81.02;103260.63;6433789;23;20059;-72
2022/01/24 03:59:54;;;;;;;32.37;24.97;;;;;;;3.94;82.16;103256.25;6433731;23;20031;-71
2022/01/24 04:02:27;;;;;;;33.80;25.93;;;;;;;3.96;81.73;103247.81;6433607;23;20055;-73
2022/01/24 04:04:58;;;;;;;31.02;25.20;;;;;;;3.93;81.50;103251.88;6434050;23;20016;-72
2022/01/24 04:07:31;;;;;;;32.23;25.20;;;;;;;3.94;80.40;103254.56;6432993;23;20009;-76
2022/01/24 04:10:08;;;;;;;31.85;24.48;;;;;;;3.92;79.48;103245.84;6431966;23;20509;-71
2022/01/24 04:12:39;;;;;;;30.08;25.00;;;;;;;3.93;79.79;103250.22;6433532;23;20012;-72
2022/01/24 04:15:25;;;;;;;32.13;26.73;;;;;;;3.94;79.97;103248.50;6433247;23;20009;-76
2022/01/24 04:18:13;;;;;;;31.98;26.63;;;;;;;3.95;81.29;103253.75;6433807;23;20441;-72
2022/01/24 04:26:29;;;;;;;32.55;25.63;;;;;;;3.87;82.71;103247.28;6338195;23;20025;-72
2022/01/24 04:29:01;;;;;;;31.83;26.60;;;;;;;3.91;81.49;103249.25;6338466;23;20010;-71
2022/01/24 04:31:33;;;;;;;33.07;26.23;;;;;;;3.93;80.86;103244.16;6337513;23;20015;-72
2022/01/24 04:34:04;;;;;;;29.77;24.63;;;;;;;3.94;81.15;103246.81;6338041;23;20010;-72
2022/01/24 04:36:36;;;;;;;33.17;25.20;;;;;;;3.95;81.85;103246.00;6338368;23;20290;-74
2022/01/24 04:39:08;;;;;;;33.23;24.80;;;;;;;3.91;81.57;103250.91;6338082;23;20018;-71
2022/01/24 04:41:43;;;;;;;32.73;25.17;;;;;;;3.94;80.54;103256.25;6338335;23;20022;-72
2022/01/24 04:50:41;;;;;;;31.67;24.58;;;;;;;3.90;79.98;103255.22;6307947;23;20015;-74
2022/01/24 04:53:46;;;;;;;31.77;22.83;;;;;;;3.88;78.88;103253.34;6307912;23;20003;-71
2022/01/24 04:56:17;;;;;;;31.50;23.42;;;;;;;3.87;79.50;103254.16;6308193;23;20011;-71
2022/01/24 04:58:48;;;;;;;30.77;23.17;;;;;;;3.85;79.39;103256.66;6308153;23;20467;-71
2022/01/24 05:01:20;;;;;;;28.03;22.40;;;;;;;3.83;79.04;103260.81;6308565;23;20011;-76
2022/01/24 05:03:52;;;;;;;31.10;23.33;;;;;;;3.79;79.86;103253.72;6307760;23;20018;-72
2022/01/24 05:06:23;;;;;;;29.77;23.73;;;;;;;3.82;81.02;103259.06;6308278;23;20011;-73
2022/01/24 05:08:55;;;;;;;29.60;23.53;;;;;;;3.82;80.82;103259.06;6308040;23;20018;-72
2022/01/24 05:11:37;;;;;;;32.73;24.73;;;;;;;3.82;80.69;103259.94;6307688;23;20033;-71
2022/01/24 05:25:29;;;;;;;32.25;23.95;;;;;;;3.84;79.34;103258.31;6318821;23;20022;-76
2022/01/24 05:28:01;;;;;;;31.80;24.13;;;;;;;3.84;80.38;103255.75;6426027;23;20009;-72
2022/01/24 05:30:32;;;;;;;28.57;21.87;;;;;;;3.83;79.05;103260.81;6433133;23;20446;-71
2022/01/24 05:33:03;;;;;;;31.07;23.07;;;;;;;3.86;79.56;103252.38;6432544;23;20013;-71
2022/01/24 05:35:35;;;;;;;30.90;24.33;;;;;;;3.87;79.98;103251.56;6432531;23;20521;-72
2022/01/24 05:38:06;;;;;;;29.27;23.93;;;;;;;3.86;80.11;103253.25;6432971;23;20017;-72
2022/01/24 05:40:39;;;;;;;29.17;22.83;;;;;;;3.76;79.34;103245.81;6432856;23;20009;-72
2022/01/24 05:43:10;;;;;;;28.23;23.40;;;;;;;3.76;79.46;103248.41;6432662;23;20449;-73
2022/01/24 05:45:42;;;;;;;28.87;23.10;;;;;;;3.73;79.20;103246.53;6432607;23;20043;-71
2022/01/24 05:48:13;;;;;;;28.23;21.17;;;;;;;3.73;79.25;103243.94;6432799;23;20131;-71
2022/01/24 05:50:45;;;;;;;29.23;23.00;;;;;;;3.74;79.16;103255.19;6406344;23;20040;-71
2022/01/24 05:53:16;;;;;;;29.97;22.70;;;;;;;3.73;78.80;103259.44;6433131;23;20005;-71
2022/01/24 05:55:47;;;;;;;29.27;23.10;;;;;;;3.71;78.85;103252.44;6432682;23;20041;-71
2022/01/24 05:58:19;;;;;;;27.23;21.77;;;;;;;3.72;79.33;103254.19;6432948;23;20032;-70
2022/01/24 06:00:50;;;;;;;29.77;22.40;;;;;;;3.72;79.84;103255.09;6432840;23;20005;-71
2022/01/24 06:03:22;;;;;;;28.87;23.20;;;;;;;3.74;79.43;103260.34;6432538;23;20009;-73
2022/01/24 06:05:53;;;;;;;30.33;23.70;;;;;;;3.72;78.82;103260.25;6432567;23;20434;-72
2022/01/24 06:08:24;;;;;;;30.03;24.37;;;;;;;3.73;79.35;103254.25;6433258;23;20375;-73
2022/01/24 06:10:58;;;;;;;29.27;23.57;;;;;;;3.74;79.73;103253.47;6434198;23;20032;-74
2022/01/24 06:13:31;;;;;;;32.95;24.27;;;;;;;3.73;79.03;103254.25;6434672;23;20064;-73
2022/01/24 06:16:02;;;;;;;31.75;23.67;;;;;;;3.73;79.19;103261.13;6435016;23;20060;-75
2022/01/24 06:18:34;;;;;;;29.03;22.20;;;;;;;3.71;79.72;103255.88;6434701;23;20012;-74
2022/01/24 06:21:05;;;;;;;32.50;24.67;;;;;;;3.72;79.81;103251.59;6434645;23;20084;-72
2022/01/24 06:23:36;;;;;;;31.33;24.83;;;;;;;3.68;80.64;103254.84;6434514;23;20400;-72
2022/01/24 06:26:10;;;;;;;28.17;22.07;;;;;;;3.68;79.73;103260.00;6431517;23;20382;-72
2022/01/24 06:28:41;;;;;;;29.58;21.63;;;;;;;3.65;79.75;103258.13;6433427;23;20068;-71
2022/01/24 06:31:12;;;;;;;28.10;21.40;;;;;;;3.62;79.16;103256.28;6433342;23;20115;-72
2022/01/24 06:33:44;;;;;;;29.20;21.73;;;;;;;3.61;79.83;103259.66;6432871;23;20015;-71
2022/01/24 06:36:15;;;;;;;31.90;22.43;;;;;;;3.63;80.13;103260.63;6432227;23;20395;-72
2022/01/24 06:38:47;;;;;;;27.60;21.03;;;;;;;3.59;79.81;103255.19;6432312;23;20079;-72
2022/01/24 06:41:24;;;;;;;28.53;22.33;;;;;;;3.56;79.29;103260.19;6433084;23;20016;-73
2022/01/24 06:43:55;;;;;;;26.98;20.17;;;;;;;3.54;79.63;103251.47;6433285;23;20060;-74
2022/01/24 06:46:27;;;;;;;30.77;21.40;;;;;;;3.54;79.99;103254.06;6433076;23;20084;-72
2022/01/24 06:48:58;;;;;;;29.73;20.80;;;;;;;3.51;80.32;103251.31;6432407;23;20008;-74
2022/01/24 06:51:30;;;;;;;24.47;19.33;;;;;;;3.51;81.44;103262.53;6432864;23;20035;-73
2022/01/24 06:54:01;;;;;;;30.30;21.30;;;;;;;3.56;81.12;103263.66;6433281;23;20009;-72
2022/01/24 06:56:33;;;;;;;32.27;22.23;;;;;;;3.56;81.05;103267.91;6433362;23;20036;-73
2022/01/24 06:59:05;;;;;;;31.30;22.43;;;;;;;3.53;80.35;103271.22;6434150;23;20003;-73
2022/01/24 07:01:36;;;;;;;31.47;22.40;;;;;;;3.54;80.61;103272.09;6434201;23;20005;-73
2022/01/24 07:04:07;;;;;;;31.00;22.03;;;;;;;3.53;80.45;103270.34;6434251;23;20012;-73
2022/01/24 07:06:39;;;;;;;29.17;21.87;;;;;;;3.50;80.33;103265.03;6433782;23;20012;-72
2022/01/24 07:09:12;;;;;;;32.13;22.07;;;;;;;3.48;80.38;103270.09;6434291;23;20041;-76
2022/01/24 07:11:44;;;;;;;29.60;21.92;;;;;;;3.50;80.65;103270.19;6434062;23;20005;-72
2022/01/24 07:14:15;;;;;;;29.77;21.87;;;;;;;3.42;80.69;103269.75;6434604;23;20080;-78
2022/01/24 07:19:30;;;;;;;28.13;21.17;;;;;;;3.36;80.61;103274.53;6433996;23;20331;-74
2022/01/24 07:22:03;;;;;;;32.88;22.10;;;;;;;3.36;81.29;103275.41;6433793;23;20100;-73
2022/01/24 07:24:35;;;;;;;27.35;19.80;;;;;;;3.34;81.45;103273.56;6433686;23;20011;-74
2022/01/24 07:27:07;;;;;;;27.93;22.10;;;;;;;3.39;81.11;103285.03;6434309;23;20362;-77
2022/01/24 07:29:38;;;;;;;27.33;21.63;;;;;;;3.37;81.46;103284.06;6433788;23;20331;-75
2022/01/24 07:32:12;;;;;;;28.87;21.63;;;;;;;3.33;81.02;103282.09;6433660;23;20008;-72
2022/01/24 07:34:43;;;;;;;29.83;21.10;;;;;;;3.35;81.32;103276.25;6433820;23;20005;-73
2022/01/24 07:37:14;;;;;;;30.27;22.73;;;;;;;3.34;80.84;103278.72;6433792;23;20071;-73
2022/01/24 07:39:46;;;;;;;31.57;21.97;;;;;;;3.37;81.57;103276.34;6433733;23;20024;-74
2022/01/24 07:42:29;;;;;;;34.20;21.47;;;;;;;3.37;81.37;103281.50;6434098;23;20009;-73
2022/01/24 07:45:00;;;;;;;30.15;20.58;;;;;;;3.39;81.34;103279.88;6433622;23;20012;-72
2022/01/24 07:47:31;;;;;;;28.07;21.13;;;;;;;3.40;81.10;103273.94;6433744;23;20005;-73
2022/01/24 07:50:03;;;;;;;29.37;22.10;;;;;;;3.41;80.72;103280.84;6433784;23;20079;-76
2022/01/24 07:52:36;;;;;;;28.23;21.93;;;;;;;3.44;81.11;103281.91;6433786;23;20164;-72
2022/01/24 07:55:07;;;;;;;30.38;22.85;;;;;;;3.44;81.22;103288.75;6434072;23;20013;-74
2022/01/24 07:57:39;;;;;;;32.37;24.40;;;;;;;3.42;81.12;103287.78;6433279;23;20017;-74
2022/01/24 08:00:11;;;;;;;32.53;24.27;;;;;;;3.44;80.58;103292.22;6433851;23;20011;-76
2022/01/24 08:02:42;;;;;;;31.35;23.45;;;;;;;3.44;80.30;103302.53;6433724;23;20142;-73
2022/01/24 08:05:14;;;;;;;30.50;22.97;;;;;;;3.48;79.76;103301.03;6431451;23;20009;-73
2022/01/24 08:07:45;;;;;;;29.93;21.83;;;;;;;3.52;80.16;103307.25;6433587;23;20137;-73
2022/01/24 08:10:20;;;;;;;34.27;24.63;;;;;;;3.55;80.50;103307.44;6429507;23;20031;-75
2022/01/24 08:12:51;;;;;;;30.95;24.30;;;;;;;3.52;79.38;103307.25;6429525;23;20391;-74
2022/01/24 08:15:24;;;;;;;31.77;24.97;;;;;;;3.57;79.71;103309.28;6429802;23;20012;-74
2022/01/24 08:17:55;;;;;;;31.70;25.13;;;;;;;3.57;78.81;103317.00;6430389;23;20009;-75
2022/01/24 08:20:26;;;;;;;34.63;26.63;;;;;;;3.52;79.01;103310.69;6429222;23;20009;-74
2022/01/24 08:22:58;;;;;;;32.70;25.17;;;;;;;3.50;78.36;103312.31;6429566;23;20012;-75
2022/01/24 08:25:29;;;;;;;33.30;25.77;;;;;;;3.50;77.94;103317.47;6429786;23;20093;-72
2022/01/24 08:28:00;;;;;;;30.97;24.80;;;;;;;3.55;78.26;103313.47;6429177;23;20084;-72
2022/01/24 08:30:32;;;;;;;33.90;25.43;;;;;;;3.55;78.23;103312.59;6429366;23;20081;-74
2022/01/24 08:33:05;;;;;;;34.28;25.48;;;;;;;3.57;78.93;103318.72;6429396;23;20008;-74
2022/01/24 08:35:37;;;;;;;33.28;26.48;;;;;;;3.59;78.38;103320.59;6417145;23;20092;-73
2022/01/24 08:38:08;;;;;;;32.03;24.40;;;;;;;3.60;78.45;103317.19;6429348;23;20104;-74
2022/01/24 08:40:41;;;;;;;35.10;24.40;;;;;;;3.62;78.23;103317.28;6426119;23;20028;-74
2022/01/24 08:43:12;;;;;;;33.03;25.63;;;;;;;3.61;78.39;103313.81;6428616;23;20013;-74
2022/01/24 08:45:58;;;;;;;31.27;25.47;;;;;;;3.65;77.98;103317.44;6427602;23;20023;-74
2022/01/24 08:48:31;;;;;;;35.00;25.40;;;;;;;3.63;77.90;103317.34;6429995;23;20015;-73
2022/01/24 08:51:03;;;;;;;35.47;24.42;;;;;;;3.61;77.51;103316.38;6431234;23;20005;-74
2022/01/24 08:53:35;;;;;;;35.23;25.17;;;;;;;3.63;77.68;103312.19;6429368;23;20029;-73
2022/01/24 08:56:06;;;;;;;33.73;24.63;;;;;;;3.62;77.04;103319.84;6404393;23;20427;-74
2022/01/24 08:58:38;;;;;;;32.63;25.30;;;;;;;3.64;77.39;103320.84;6429833;23;21068;-74
2022/01/24 09:01:10;;;;;;;32.13;25.70;;;;;;;3.65;77.51;103328.69;6406073;23;20009;-76
2022/01/24 09:03:41;;;;;;;34.03;26.13;;;;;;;3.69;78.07;103319.41;6432354;23;20394;-73
2022/01/24 09:06:17;;;;;;;36.97;25.30;;;;;;;3.73;77.95;103317.88;6432023;23;20040;-73
2022/01/24 09:08:55;;;;;;;34.70;27.10;;;;;;;3.69;78.49;103316.84;6432768;23;20009;-73
2022/01/24 09:11:29;;;;;;;35.80;25.85;;;;;;;3.80;77.64;103322.56;6430945;23;20016;-74
2022/01/24 09:14:07;;;;;;;33.10;25.77;;;;;;;3.86;77.70;103329.78;6430732;23;20011;-74
2022/01/24 09:16:39;;;;;;;34.65;24.27;;;;;;;3.85;77.29;103321.16;6431159;23;20066;-73
2022/01/24 09:19:10;;;;;;;34.42;26.00;;;;;;;3.87;77.58;103324.72;6431956;23;20410;-74
2022/01/24 09:21:41;;;;;;;32.93;24.93;;;;;;;3.97;77.96;103331.25;6404521;23;20001;-75
2022/01/24 09:24:13;;;;;;;32.63;24.20;;;;;;;3.94;77.07;103334.56;6431704;23;20323;-73
2022/01/24 09:26:44;;;;;;;30.53;22.73;;;;;;;3.93;77.64;103334.47;6433134;23;20012;-74
2022/01/24 09:29:16;;;;;;;32.03;22.77;;;;;;;3.93;77.07;103331.88;6433010;23;20074;-74
2022/01/24 09:31:47;;;;;;;32.53;23.27;;;;;;;3.93;76.14;103327.63;6433209;23;20047;-76
2022/01/24 09:34:20;;;;;;;31.17;23.27;;;;;;;3.94;76.15;103328.50;6432950;23;20009;-74
2022/01/24 09:36:52;;;;;;;31.65;24.20;;;;;;;3.91;75.46;103325.75;6433297;23;20004;-75
2022/01/24 09:39:23;;;;;;;31.70;23.33;;;;;;;3.95;76.37;103327.72;6431884;23;20021;-74
2022/01/24 09:41:55;;;;;;;29.37;22.97;;;;;;;3.94;75.87;103336.25;6432250;23;20326;-73
2022/01/24 09:44:26;;;;;;;33.83;24.33;;;;;;;3.89;75.76;103328.25;6432742;23;20005;-74
2022/01/24 09:46:58;;;;;;;32.27;24.03;;;;;;;3.90;75.37;103322.31;6432481;23;20067;-74
2022/01/24 09:49:29;;;;;;;32.17;24.37;;;;;;;3.91;75.21;103318.94;6433139;23;20024;-75
2022/01/24 09:52:00;;;;;;;31.37;23.13;;;;;;;3.94;75.58;103324.22;6432775;23;20067;-76
2022/01/24 09:54:32;;;;;;;30.53;23.90;;;;;;;3.88;74.96;103325.59;6432864;23;20383;-74
2022/01/24 09:57:03;;;;;;;30.67;23.47;;;;;;;3.97;75.63;103318.38;6432381;23;20059;-75
2022/01/24 09:59:35;;;;;;;29.53;21.37;;;;;;;4.02;75.69;103322.06;6432027;23;20032;-75
2022/01/24 10:02:06;;;;;;;30.50;22.90;;;;;;;4.11;75.36;103319.13;6432580;23;20318;-77
2022/01/24 10:04:38;;;;;;;30.70;22.87;;;;;;;4.17;75.67;103316.84;6433028;23;20028;-75
2022/01/24 10:07:12;;;;;;;33.13;22.30;;;;;;;4.22;76.29;103315.44;6432527;23;20005;-73
2022/01/24 10:09:47;;;;;;;30.10;22.05;;;;;;;4.23;76.19;103319.78;6432577;23;20068;-74
2022/01/24 10:18:07;;;;;;;29.55;22.50;;;;;;;4.43;74.42;103317.38;6432357;23;20426;-75
2022/01/24 10:20:41;;;;;;;28.95;21.25;;;;;;;4.47;73.39;103314.16;6431935;23;20487;-74
2022/01/24 10:23:20;;;;;;;30.23;22.23;;;;;;;4.58;73.48;103313.03;6432103;23;20319;-74
2022/01/24 10:25:59;;;;;;;28.27;20.85;;;;;;;4.65;73.22;103315.09;6429424;23;20009;-74
2022/01/24 10:28:41;;;;;;;27.05;20.63;;;;;;;4.74;73.31;103313.00;6431822;23;20367;-74
2022/01/24 10:31:23;;;;;;;27.80;20.73;;;;;;;4.68;72.43;103312.69;6430756;23;20009;-74
2022/01/24 10:33:55;;;;;;;26.65;20.23;;;;;;;4.67;72.24;103321.28;6429976;23;20369;-74
2022/01/24 10:36:35;;;;;;;27.85;20.45;;;;;;;4.73;73.32;103311.25;6432572;23;20020;-74
2022/01/24 10:39:18;;;;;;;30.73;20.05;;;;;;;4.78;72.27;103308.00;6432364;23;20013;-75
2022/01/24 10:42:30;;;;;;;26.67;20.80;;;;;;;4.84;72.45;103306.63;6432535;23;20343;-75
2022/01/24 10:45:15;;;;;;;25.63;18.42;;;;;;;4.72;72.12;103309.47;6432259;23;20052;-75
2022/01/24 10:47:50;;;;;;;27.75;18.65;;;;;;;4.79;71.87;103309.78;6432295;23;20009;-75
2022/01/24 10:50:29;;;;;;;26.55;20.45;;;;;;;4.83;71.17;103297.13;6432999;23;20012;-73
2022/01/24 10:53:15;;;;;;;23.42;19.52;;;;;;;4.94;71.46;103300.22;6432294;23;20056;-73
2022/01/24 10:55:47;;;;;;;24.58;18.70;;;;;;;4.94;70.59;103300.22;6431684;23;20146;-73
2022/01/24 10:58:18;;;;;;;23.67;18.17;;;;;;;4.91;70.88;103294.91;6434221;23;20427;-75
2022/01/24 11:00:50;;;;;;;26.00;19.73;;;;;;;4.97;70.21;103305.56;6434424;23;20064;-73
2022/01/24 11:03:21;;;;;;;25.77;19.27;;;;;;;5.08;70.25;103301.81;6434350;23;20012;-73
2022/01/24 11:05:54;;;;;;;21.97;16.93;;;;;;;5.18;70.51;103299.69;6433212;23;20423;-74
2022/01/24 11:08:27;;;;;;;27.73;19.35;;;;;;;5.11;69.86;103290.75;6434242;23;20009;-74
2022/01/24 11:10:58;;;;;;;24.05;18.27;;;;;;;4.77;70.54;103288.16;6434226;23;20330;-75
2022/01/24 11:13:31;;;;;;;26.30;19.93;;;;;;;4.67;70.77;103295.44;6434340;23;20009;-74
2022/01/24 11:16:04;;;;;;;24.88;19.08;;;;;;;4.33;71.43;103295.34;6433827;23;20009;-73
2022/01/24 11:18:36;;;;;;;26.33;19.50;;;;;;;4.23;71.66;103293.97;6434824;23;20434;-74
2022/01/24 11:21:13;;;;;;;25.15;19.38;;;;;;;4.14;72.12;103293.47;6434333;23;20008;-74
2022/01/24 11:23:45;;;;;;;25.35;19.17;;;;;;;4.22;72.49;103297.38;6434477;23;20032;-75
2022/01/24 11:26:18;;;;;;;27.25;20.23;;;;;;;4.18;72.67;103293.69;6434241;23;20040;-75
2022/01/24 11:28:51;;;;;;;26.45;19.73;;;;;;;4.14;72.64;103286.63;6433898;23;20059;-73
2022/01/24 11:31:30;;;;;;;26.67;19.23;;;;;;;4.13;72.81;103290.00;6433897;23;20457;-73
2022/01/24 11:34:13;;;;;;;26.13;19.60;;;;;;;4.29;73.46;103283.97;6434108;23;20009;-73
2022/01/24 11:36:45;;;;;;;25.48;19.20;;;;;;;4.32;72.91;103278.97;6434078;23;20111;-74
2022/01/24 11:39:22;;;;;;;27.30;19.23;;;;;;;4.44;72.87;103278.72;6433881;23;20099;-74
2022/01/24 11:41:55;;;;;;;27.05;19.52;;;;;;;4.49;72.24;103278.97;6433442;23;20017;-74
2022/01/24 11:44:45;;;;;;;28.83;22.45;;;;;;;4.62;72.32;103290.81;6434511;23;20001;-74
2022/01/24 11:47:22;;;;;;;26.15;18.80;;;;;;;4.59;71.94;103291.56;6433784;23;20431;-75
2022/01/24 11:49:54;;;;;;;25.58;18.70;;;;;;;4.28;70.65;103283.88;6433243;23;20013;-74
2022/01/24 11:52:33;;;;;;;26.77;18.70;;;;;;;4.46;72.29;103283.97;6433794;23;20009;-74
2022/01/24 11:55:30;;;;;;;25.35;20.30;;;;;;;4.54;71.86;103285.25;6433504;23;20012;-73
2022/01/24 11:58:06;;;;;;;26.75;19.80;;;;;;;4.64;71.48;103269.44;6434068;23;20013;-76
2022/01/24 12:00:44;;;;;;;26.85;20.13;;;;;;;4.65;72.79;103281.53;6434307;23;20318;-74
2022/01/24 12:03:20;;;;;;;28.70;19.77;;;;;;;4.74;72.11;103269.09;6433991;23;20287;-75
2022/01/24 12:05:53;;;;;;;26.30;19.42;;;;;;;4.95;72.25;103257.19;6434302;23;20009;-74
2022/01/24 12:08:34;;;;;;;27.55;19.90;;;;;;;5.22;72.55;103258.56;6433573;23;20032;-73
2022/01/24 12:11:13;;;;;;;26.00;19.42;;;;;;;5.07;71.16;103257.78;6433729;23;20071;-73
2022/01/24 12:13:53;;;;;;;27.63;20.85;;;;;;;5.21;71.04;103256.75;6433241;23;20205;-74
2022/01/24 12:16:39;;;;;;;28.15;20.80;;;;;;;5.36;70.82;103258.31;6433000;23;20008;-73
2022/01/24 12:19:11;;;;;;;29.10;19.58;;;;;;;5.49;70.52;103258.13;6433911;23;20303;-74
2022/01/24 12:21:43;;;;;;;25.77;19.77;;;;;;;5.49;68.52;103255.53;6433385;23;20011;-75
2022/01/24 12:24:14;;;;;;;26.27;20.00;;;;;;;5.59;69.36;103257.75;6433881;23;20076;-73
2022/01/24 12:26:48;;;;;;;24.87;19.87;;;;;;;5.58;68.07;103260.25;6432993;23;20001;-73
2022/01/24 12:29:25;;;;;;;24.75;19.10;;;;;;;5.64;68.47;103251.06;6432746;23;20028;-71
2022/01/24 12:32:03;;;;;;;25.80;19.17;;;;;;;5.78;67.48;103253.41;6433310;23;20005;-73
2022/01/24 12:34:39;;;;;;;27.48;19.98;;;;;;;5.51;67.24;103251.31;6433044;23;20043;-75
2022/01/24 12:37:21;;;;;;;28.63;20.23;;;;;;;5.72;67.58;103246.28;6433297;23;20073;-75
2022/01/24 12:40:06;;;;;;;24.50;19.60;;;;;;;5.93;68.00;103248.09;6433756;23;20434;-75
2022/01/24 12:42:57;;;;;;;26.20;19.40;;;;;;;6.09;66.15;103247.13;6433503;23;20007;-75
2022/01/24 12:48:18;;;;;;;27.25;20.45;;;;;;;6.01;65.20;103233.81;6433177;23;20020;-74
2022/01/24 12:50:51;;;;;;;27.67;20.20;;;;;;;6.23;66.24;103235.69;6433327;23;20371;-73
2022/01/24 12:53:23;;;;;;;29.38;21.35;;;;;;;6.05;65.54;103242.59;6431551;23;20009;-73
2022/01/24 12:56:00;;;;;;;29.80;21.07;;;;;;;6.20;66.04;103230.34;6432728;23;20009;-74
2022/01/24 12:58:40;;;;;;;27.77;21.08;;;;;;;6.04;66.16;103236.56;6433651;23;20442;-74
2022/01/24 13:01:22;;;;;;;27.42;20.58;;;;;;;6.88;65.61;103228.97;6433291;23;20431;-74
2022/01/24 13:03:59;;;;;;;27.63;21.37;;;;;;;7.78;62.32;103227.31;6432136;23;20443;-74
2022/01/24 13:06:35;;;;;;;26.27;20.77;;;;;;;7.87;61.43;103217.25;6433253;23;20462;-74
2022/01/24 13:09:24;;;;;;;28.15;20.73;;;;;;;8.08;60.57;103209.38;6433012;23;20013;-72
2022/01/24 13:12:00;;;;;;;26.73;20.58;;;;;;;8.92;59.46;103208.00;6432952;23;20009;-73
2022/01/24 13:15:05;;;;;;;26.88;21.33;;;;;;;9.10;55.71;103202.50;6433012;23;20012;-73
2022/01/24 13:23:06;;;;;;;26.20;20.50;;;;;;;11.85;48.74;103193.22;6443856;23;20025;-74
2022/01/24 13:25:39;;;;;;;24.83;18.52;;;;;;;11.73;47.56;103195.56;6433023;23;20017;-73